This is the latest recevied weather packets stored in our database for station/object DK8RG-15. If no packets are shown the sender has not sent any weather packets the latest 10 day(s).
| Time | Temp. | Humidity | Pressure | Rain* | Wind** | Luminosity | Snow |
|---|---|---|---|---|---|---|---|
| 1777636816 | 19.44° C | 36% | 1024.9 hPa | 0 mm | - | - | - |
| 1777636215 | 8.89° C | 17% | 1024 hPa | 0 mm | - | - | - |
| 1777634415 | 19.44° C | 38% | 1025 hPa | 0 mm | - | - | - |
| 1777633816 | 18.89° C | 39% | 1024.9 hPa | 0 mm | - | - | - |
| 1777633216 | 18.33° C | 39% | 1024.9 hPa | 0 mm | - | - | - |
| 1777632615 | 17.78° C | 39% | 1024.8 hPa | 0 mm | - | - | - |
| 1777632015 | 17.78° C | 40% | 1024.9 hPa | 0 mm | - | - | - |
| 1777631416 | 17.78° C | 40% | 1025.9 hPa | 0 mm | - | - | - |
| 1777630815 | 17.78° C | 41% | 1024.9 hPa | 0 mm | - | - | - |
| 1777630215 | 17.78° C | 43% | 1024.9 hPa | 0 mm | - | - | - |
| 1777629616 | 17.22° C | 43% | 1025.9 hPa | 0 mm | - | - | - |
| 1777629016 | 16.67° C | 43% | 1025.8 hPa | 0 mm | - | - | - |
| 1777628416 | 16.67° C | 44% | 1025.8 hPa | 0 mm | - | - | - |
| 1777627816 | 17.22° C | 44% | 1025.9 hPa | 0 mm | - | - | - |
| 1777627215 | 17.22° C | 44% | 1025.9 hPa | 0 mm | - | - | - |
| 1777626616 | 16.11° C | 44% | 1025.9 hPa | 0 mm | - | - | - |
| 1777626016 | 16.11° C | 44% | 1025.9 hPa | 0 mm | - | - | - |
| 1777625416 | 15.56° C | 43% | 1025.8 hPa | 0 mm | - | - | - |
| 1777624816 | 15.56° C | 44% | 1025.9 hPa | 0 mm | - | - | - |
| 1777624217 | 15° C | 44% | 1025.9 hPa | 0 mm | - | - | - |
| 1777623616 | 15° C | 46% | 1025.9 hPa | 0 mm | - | - | - |
| 1777623016 | 15° C | 48% | 1025.9 hPa | 0 mm | - | - | - |
| 1777622416 | 14.44° C | 49% | 1025.9 hPa | 0 mm | - | - | - |
| 1777621816 | 14.44° C | 48% | 1026 hPa | 0 mm | - | - | - |
| 1777621217 | 15° C | 49% | 1026 hPa | 0 mm | - | - | - |
* Rain latest hour (hover to see other rain measurements)
** Current wind speed in m/s (hover to see current wind gust speed)